Time;durP1;ratioP1;P1;durP2;ratioP2;P2;SDS_P1;SDS_P2;PMS_P1;PMS_P2;Temp;Humidity;BMP_temperature;BMP_pressure;BME280_temperature;BME280_humidity;BME280_pressure;Samples;Min_cycle;Max_cycle;Signal;HPM_P1;HPM_P2
2021/11/01 00:01:56;;;;;;;0.00;0.00;;;14.20;99.90;;;;;;5073594;28;20139;-82
2021/11/01 00:04:22;;;;;;;0.00;0.00;;;14.20;99.90;;;;;;5091967;28;20028;-82
2021/11/01 00:06:48;;;;;;;0.00;0.00;;;14.20;99.90;;;;;;5092145;28;20047;-82
2021/11/01 00:09:14;;;;;;;0.00;0.00;;;14.30;99.90;;;;;;5092828;28;20143;-85
2021/11/01 00:11:40;;;;;;;0.00;0.00;;;14.40;99.90;;;;;;5095936;28;20513;-85
2021/11/01 00:14:06;;;;;;;0.10;0.10;;;14.60;99.90;;;;;;5077199;28;20020;-82
2021/11/01 00:16:32;;;;;;;0.00;0.00;;;14.60;99.90;;;;;;5095108;28;20466;-82
2021/11/01 00:18:58;;;;;;;0.00;0.00;;;14.60;99.90;;;;;;5095544;28;20035;-82
2021/11/01 00:21:24;;;;;;;0.00;0.00;;;14.60;99.90;;;;;;5077416;28;20043;-82
2021/11/01 00:23:51;;;;;;;0.70;0.28;;;14.50;99.90;;;;;;5095514;28;20024;-80
2021/11/01 00:26:18;;;;;;;0.00;0.00;;;14.50;99.90;;;;;;5095285;28;20032;-82
2021/11/01 00:28:44;;;;;;;0.22;0.22;;;14.10;99.90;;;;;;5095503;28;20027;-81
2021/11/01 00:31:11;;;;;;;0.00;0.00;;;13.80;99.90;;;;;;5094432;28;20030;-81
2021/11/01 00:33:36;;;;;;;0.00;0.00;;;13.40;99.90;;;;;;5094191;28;20395;-81
2021/11/01 00:36:03;;;;;;;0.00;0.00;;;12.80;99.90;;;;;;5095153;28;20031;-81
2021/11/01 00:38:29;;;;;;;0.00;0.00;;;12.40;99.90;;;;;;5095578;28;20399;-81
2021/11/01 00:40:55;;;;;;;0.00;0.00;;;12.10;99.90;;;;;;5095436;28;20028;-81
2021/11/01 00:43:21;;;;;;;0.00;0.00;;;11.90;99.90;;;;;;5095542;28;20058;-82
2021/11/01 00:45:47;;;;;;;0.00;0.00;;;11.70;99.90;;;;;;5095284;28;20024;-83
2021/11/01 00:48:13;;;;;;;0.00;0.00;;;11.70;99.90;;;;;;5094820;28;20433;-82
2021/11/01 00:50:39;;;;;;;0.00;0.00;;;11.60;99.90;;;;;;5094548;28;20070;-82
2021/11/01 00:53:05;;;;;;;0.20;0.20;;;11.60;99.90;;;;;;5095025;28;20016;-82
2021/11/01 00:55:50;;;;;;;1.27;0.08;;;11.60;99.90;;;;;;5095443;28;20081;-82
2021/11/01 00:58:19;;;;;;;0.00;0.00;;;11.60;99.90;;;;;;5076847;28;20024;-82
2021/11/01 01:00:45;;;;;;;0.00;0.00;;;11.50;99.90;;;;;;5095185;28;20483;-82
2021/11/01 01:03:12;;;;;;;0.00;0.00;;;11.50;99.90;;;;;;5095069;28;20025;-82
2021/11/01 01:05:43;;;;;;;0.00;0.00;;;11.60;99.90;;;;;;5095185;28;20028;-82
2021/11/01 01:08:17;;;;;;;0.10;0.10;;;11.60;99.90;;;;;;5094677;28;20028;-81
2021/11/01 01:10:44;;;;;;;0.03;0.03;;;11.60;99.90;;;;;;5093956;28;20069;-82
2021/11/01 01:13:11;;;;;;;0.00;0.00;;;11.60;99.90;;;;;;5094906;28;20027;-82
2021/11/01 01:15:51;;;;;;;0.00;0.00;;;11.60;99.90;;;;;;5094557;28;20051;-81
2021/11/01 01:18:23;;;;;;;0.00;0.00;;;11.60;99.90;;;;;;5093892;28;20486;-81
2021/11/01 01:20:50;;;;;;;0.10;0.10;;;11.50;99.90;;;;;;5093723;28;20073;-81
2021/11/01 01:23:16;;;;;;;0.20;0.10;;;11.50;99.90;;;;;;5076667;28;20036;-82
2021/11/01 01:25:47;;;;;;;0.17;0.17;;;11.50;99.90;;;;;;5094845;28;20063;-81
2021/11/01 01:28:14;;;;;;;0.00;0.00;;;11.40;99.90;;;;;;5093918;28;20522;-81
2021/11/01 01:30:40;;;;;;;0.00;0.00;;;11.40;99.90;;;;;;5094469;28;20128;-82
2021/11/01 01:33:09;;;;;;;0.00;0.00;;;11.30;99.90;;;;;;5094073;28;20385;-81
2021/11/01 01:35:40;;;;;;;0.00;0.00;;;11.40;99.90;;;;;;5094038;28;20019;-82
2021/11/01 01:38:07;;;;;;;0.00;0.00;;;11.40;99.90;;;;;;5093043;28;20046;-82
2021/11/01 01:40:34;;;;;;;0.00;0.00;;;11.50;99.90;;;;;;5094415;28;20030;-81
2021/11/01 01:43:00;;;;;;;0.35;0.35;;;11.60;99.90;;;;;;5076340;28;20110;-82
2021/11/01 01:45:25;;;;;;;0.10;0.10;;;11.80;99.90;;;;;;5094015;28;20099;-81
2021/11/01 01:47:53;;;;;;;1.38;1.27;;;11.90;99.90;;;;;;5075791;28;20078;-82
2021/11/01 01:50:18;;;;;;;3.78;1.08;;;12.00;99.90;;;;;;5093633;28;20066;-82
2021/11/01 01:52:48;;;;;;;0.10;0.10;;;12.10;99.90;;;;;;5094000;28;20044;-81
2021/11/01 01:55:14;;;;;;;0.00;0.00;;;12.20;99.90;;;;;;5075927;28;20039;-81
2021/11/01 01:57:40;;;;;;;0.00;0.00;;;12.30;99.90;;;;;;5093953;28;20591;-81
2021/11/01 02:03:01;;;;;;;16.07;3.53;;;12.40;99.90;;;;;;5055779;28;20048;-82
2021/11/01 02:05:37;;;;;;;0.00;0.00;;;12.50;99.90;;;;;;5094000;28;20028;-82
2021/11/01 02:08:09;;;;;;;0.00;0.00;;;12.60;99.90;;;;;;5093599;28;20065;-82
2021/11/01 02:10:43;;;;;;;0.00;0.00;;;12.60;99.90;;;;;;5093724;28;20032;-82
2021/11/01 02:13:19;;;;;;;1.08;0.43;;;12.70;99.90;;;;;;5093612;28;20034;-82
2021/11/01 02:15:49;;;;;;;0.00;0.00;;;12.70;99.90;;;;;;5093537;28;20028;-82
2021/11/01 02:18:17;;;;;;;0.00;0.00;;;12.80;99.90;;;;;;5075115;28;20027;-81
2021/11/01 02:21:02;;;;;;;0.43;0.43;;;13.00;99.90;;;;;;5093398;28;20024;-81
2021/11/01 02:23:41;;;;;;;0.00;0.00;;;13.10;99.90;;;;;;5092455;28;20035;-82
2021/11/01 02:26:12;;;;;;;0.00;0.00;;;13.10;99.90;;;;;;5075078;28;20059;-82
2021/11/01 02:28:40;;;;;;;0.00;0.00;;;13.10;99.90;;;;;;5093275;28;20116;-81
2021/11/01 02:31:10;;;;;;;0.63;0.63;;;13.10;99.90;;;;;;5091460;28;20024;-82
2021/11/01 02:33:36;;;;;;;0.50;0.08;;;13.10;99.90;;;;;;5091463;28;20090;-81
2021/11/01 02:36:04;;;;;;;0.00;0.00;;;13.20;99.90;;;;;;5093696;28;20495;-82
2021/11/01 02:38:31;;;;;;;0.00;0.00;;;13.20;99.90;;;;;;5092918;28;20020;-82
2021/11/01 02:40:58;;;;;;;0.00;0.00;;;13.20;99.90;;;;;;5093569;28;20028;-81
2021/11/01 02:43:26;;;;;;;0.00;0.00;;;13.00;99.90;;;;;;5092875;28;20111;-83
2021/11/01 02:45:52;;;;;;;0.00;0.00;;;12.50;99.90;;;;;;5092797;28;20427;-84
2021/11/01 02:48:18;;;;;;;0.00;0.00;;;12.00;99.90;;;;;;5092449;28;20104;-82
2021/11/01 02:50:45;;;;;;;0.00;0.00;;;12.00;99.90;;;;;;5092796;28;20028;-83
2021/11/01 02:53:10;;;;;;;0.10;0.10;;;12.00;99.90;;;;;;5074074;28;20020;-84
2021/11/01 02:55:37;;;;;;;5.22;2.17;;;12.00;99.90;;;;;;5074888;28;20085;-83
2021/11/01 02:58:03;;;;;;;0.00;0.00;;;12.00;99.90;;;;;;5092432;28;20038;-82
2021/11/01 03:00:29;;;;;;;0.00;0.00;;;12.00;99.90;;;;;;5092504;28;20064;-83
2021/11/01 03:02:55;;;;;;;0.00;0.00;;;12.00;99.90;;;;;;5074602;28;20502;-83
2021/11/01 03:05:24;;;;;;;0.00;0.00;;;12.00;99.90;;;;;;5092462;28;20494;-83
2021/11/01 03:07:53;;;;;;;0.15;0.15;;;11.90;99.90;;;;;;5092485;28;20035;-82
2021/11/01 03:10:21;;;;;;;0.20;0.20;;;11.90;99.90;;;;;;5092502;28;20033;-83
2021/11/01 03:12:49;;;;;;;2.40;1.67;;;11.80;99.90;;;;;;5092370;28;20024;-82
2021/11/01 03:15:21;;;;;;;0.25;0.25;;;11.70;99.90;;;;;;5092518;28;20051;-82
2021/11/01 03:17:50;;;;;;;0.00;0.00;;;11.70;99.90;;;;;;5091721;28;20016;-83
2021/11/01 03:20:20;;;;;;;0.00;0.00;;;11.70;99.90;;;;;;5092425;28;20056;-83
2021/11/01 03:22:50;;;;;;;0.00;0.00;;;11.70;99.90;;;;;;5092752;28;20028;-82
2021/11/01 03:25:23;;;;;;;0.00;0.00;;;11.60;99.90;;;;;;5092049;28;20059;-83
2021/11/01 03:27:51;;;;;;;0.30;0.30;;;11.70;99.90;;;;;;5075004;28;20036;-82
2021/11/01 03:30:18;;;;;;;0.10;0.10;;;11.70;99.90;;;;;;5092402;28;20095;-82
2021/11/01 03:32:45;;;;;;;2.25;0.10;;;11.70;99.90;;;;;;5090922;28;20028;-83
2021/11/01 03:35:12;;;;;;;0.35;0.35;;;11.70;99.90;;;;;;5091097;28;20031;-83
2021/11/01 03:37:39;;;;;;;0.00;0.00;;;11.70;99.90;;;;;;5092558;28;20027;-83
2021/11/01 03:40:06;;;;;;;1.77;1.35;;;11.70;99.90;;;;;;5092323;28;20036;-83
2021/11/01 03:42:33;;;;;;;0.00;0.00;;;11.70;99.90;;;;;;5092227;28;20020;-83
2021/11/01 03:45:05;;;;;;;0.00;0.00;;;11.70;99.90;;;;;;5094591;28;20112;-83
2021/11/01 03:47:37;;;;;;;0.00;0.00;;;11.80;99.90;;;;;;5096272;28;20020;-84
2021/11/01 03:50:13;;;;;;;3.28;1.55;;;11.90;99.90;;;;;;5096148;28;20022;-84
2021/11/01 03:52:42;;;;;;;0.00;0.00;;;11.80;99.90;;;;;;5095778;28;20028;-85
2021/11/01 03:55:08;;;;;;;1.45;1.17;;;11.80;99.90;;;;;;5096104;28;20012;-84
2021/11/01 03:57:34;;;;;;;9.55;3.30;;;11.90;99.90;;;;;;5095907;28;20043;-83
2021/11/01 04:00:00;;;;;;;0.00;0.00;;;11.90;99.90;;;;;;5096090;28;20027;-84
2021/11/01 04:02:26;;;;;;;6.50;0.85;;;12.00;99.90;;;;;;5094866;28;20538;-83
2021/11/01 04:04:53;;;;;;;0.20;0.17;;;12.00;99.90;;;;;;5095942;28;20049;-84
2021/11/01 04:07:20;;;;;;;0.00;0.00;;;12.10;99.90;;;;;;5095654;28;20021;-83
2021/11/01 04:09:46;;;;;;;0.88;0.85;;;12.20;99.90;;;;;;5094818;28;20020;-84
2021/11/01 04:12:13;;;;;;;0.17;0.13;;;12.20;99.90;;;;;;5077546;28;20040;-83
2021/11/01 04:14:50;;;;;;;0.00;0.00;;;12.30;99.90;;;;;;5095965;28;20409;-83
2021/11/01 04:17:36;;;;;;;0.10;0.10;;;12.40;99.90;;;;;;5095334;28;20024;-84
2021/11/01 04:22:32;;;;;;;0.38;0.20;;;12.40;99.90;;;;;;5096185;28;20107;-84
2021/11/01 04:24:59;;;;;;;5.82;2.20;;;12.40;99.90;;;;;;5076753;28;20052;-84
2021/11/01 04:27:25;;;;;;;0.00;0.00;;;12.40;99.90;;;;;;5095613;28;20073;-84
2021/11/01 04:29:51;;;;;;;0.03;0.03;;;12.50;99.90;;;;;;5095953;28;20032;-83
2021/11/01 04:32:24;;;;;;;2.83;0.80;;;12.50;99.90;;;;;;5095175;28;20390;-83
2021/11/01 04:35:25;;;;;;;0.00;0.00;;;12.50;99.90;;;;;;5094995;28;20067;-83
2021/11/01 04:37:43;;;;;;;0.00;0.00;;;12.60;99.90;;;;;;5092389;28;20036;-84
2021/11/01 04:40:44;;;;;;;0.25;0.25;;;12.70;99.90;;;;;;5093945;28;20044;-84
2021/11/01 04:43:28;;;;;;;0.00;0.00;;;12.80;99.90;;;;;;5095380;28;20027;-83
2021/11/01 04:54:15;;;;;;;0.00;0.00;;;12.80;99.90;;;;;;5095190;28;20513;-82
2021/11/01 04:56:43;;;;;;;2.83;1.45;;;12.90;99.90;;;;;;5095509;28;20479;-83
2021/11/01 04:59:09;;;;;;;4.28;1.55;;;12.90;99.90;;;;;;5076965;28;20028;-85
2021/11/01 05:01:39;;;;;;;1.55;0.75;;;12.90;99.90;;;;;;5094959;28;20493;-84
2021/11/01 05:04:11;;;;;;;0.00;0.00;;;13.00;99.90;;;;;;5094929;28;20047;-83
2021/11/01 05:06:42;;;;;;;0.00;0.00;;;13.10;99.90;;;;;;5094797;28;20024;-83
2021/11/01 05:09:13;;;;;;;0.00;0.00;;;13.10;99.90;;;;;;5094613;28;20043;-83
2021/11/01 05:12:28;;;;;;;1.45;0.63;;;13.20;99.90;;;;;;5094890;28;20023;-82
2021/11/01 05:19:57;;;;;;;0.70;0.43;;;13.20;99.90;;;;;;5094924;28;20035;-82
2021/11/01 05:25:09;;;;;;;1.48;0.88;;;13.10;99.90;;;;;;5094423;28;20196;-82
2021/11/01 05:30:07;;;;;;;0.00;0.00;;;13.10;99.90;;;;;;5094934;28;20021;-84
2021/11/01 05:32:34;;;;;;;0.47;0.47;;;12.90;99.90;;;;;;5094334;28;20474;-84
2021/11/01 05:34:59;;;;;;;1.27;0.90;;;12.70;99.90;;;;;;5094576;28;20517;-85
2021/11/01 05:37:25;;;;;;;0.00;0.00;;;12.70;99.90;;;;;;5093312;28;20050;-83
2021/11/01 05:39:51;;;;;;;0.00;0.00;;;12.70;99.90;;;;;;5094262;28;20020;-84
2021/11/01 05:42:17;;;;;;;0.00;0.00;;;12.80;99.90;;;;;;5094004;28;20045;-83
2021/11/01 05:44:42;;;;;;;12.50;0.50;;;12.90;99.90;;;;;;5094451;28;20016;-85
2021/11/01 05:47:09;;;;;;;0.00;0.00;;;13.00;99.90;;;;;;5093932;28;20505;-84
2021/11/01 05:49:38;;;;;;;0.00;0.00;;;13.10;99.90;;;;;;5093807;28;20225;-84
2021/11/01 05:52:07;;;;;;;0.00;0.00;;;13.10;99.90;;;;;;5092938;28;20099;-84
2021/11/01 05:54:33;;;;;;;0.35;0.35;;;13.00;99.90;;;;;;5094130;28;20478;-84
2021/11/01 06:03:08;;;;;;;2.83;1.67;;;12.90;99.90;;;;;;5031724;28;20541;-85
2021/11/01 06:13:32;;;;;;;2.13;0.47;;;13.10;99.90;;;;;;5093824;28;20024;-83
2021/11/01 06:15:59;;;;;;;0.00;0.00;;;13.20;99.90;;;;;;5075184;28;20028;-83
2021/11/01 06:20:57;;;;;;;0.00;0.00;;;13.00;99.90;;;;;;5093645;28;20027;-82
2021/11/01 06:23:26;;;;;;;0.00;0.00;;;13.00;99.90;;;;;;5093561;28;20036;-81
2021/11/01 06:25:52;;;;;;;0.10;0.10;;;13.00;99.90;;;;;;5093481;28;20047;-84
2021/11/01 06:28:19;;;;;;;0.00;0.00;;;12.90;99.90;;;;;;5093258;28;20028;-83
2021/11/01 06:30:53;;;;;;;0.00;0.00;;;12.60;99.90;;;;;;5093163;28;20032;-83
2021/11/01 06:44:23;;;;;;;0.00;0.00;;;11.20;99.90;;;;;;5093040;28;20020;-84
2021/11/01 06:50:09;;;;;;;0.00;0.00;;;11.40;99.90;;;;;;5092862;28;20031;-83
2021/11/01 06:57:27;;;;;;;0.00;0.00;;;11.10;99.90;;;;;;5093149;28;20028;-84
2021/11/01 07:17:05;;;;;;;2.90;1.75;;;11.50;99.90;;;;;;5092425;28;20038;-84
2021/11/01 09:08:20;;;;;;;9.65;0.75;;;11.70;99.90;;;;;;5094796;28;20054;-84
2021/11/01 09:26:37;;;;;;;0.00;0.00;;;12.00;99.90;;;;;;5040178;28;20403;-84
2021/11/01 09:40:55;;;;;;;0.28;0.28;;;13.20;99.90;;;;;;5041776;28;20090;-83
2021/11/01 09:42:47;;;;;;;0.47;0.47;;;13.40;99.90;;;;;;5073174;28;20090;-83
2021/11/01 09:45:13;;;;;;;0.10;0.05;;;13.60;99.90;;;;;;5073823;28;20024;-84
2021/11/01 09:47:42;;;;;;;0.15;0.15;;;13.80;99.90;;;;;;5055695;28;20025;-84
2021/11/01 09:50:10;;;;;;;0.45;0.43;;;14.00;99.90;;;;;;5093238;28;20054;-84
2021/11/01 09:52:35;;;;;;;0.10;0.10;;;14.20;99.90;;;;;;5093396;28;20016;-85
2021/11/01 09:55:16;;;;;;;0.10;0.10;;;14.30;99.90;;;;;;5075901;28;20111;-84
2021/11/01 09:59:11;;;;;;;3.90;1.15;;;14.40;99.90;;;;;;5093569;28;20040;-84
2021/11/01 10:00:28;;;;;;;0.00;0.00;;;14.50;99.90;;;;;;5093270;28;20062;-84
2021/11/01 10:02:54;;;;;;;0.20;0.20;;;14.70;99.90;;;;;;5094115;28;20418;-85
2021/11/01 10:05:26;;;;;;;0.60;0.45;;;14.90;99.90;;;;;;5093852;28;20016;-85
2021/11/01 10:07:51;;;;;;;4.03;0.57;;;15.30;99.90;;;;;;5075281;28;20020;-86
2021/11/01 10:10:17;;;;;;;7.38;1.65;;;15.30;99.90;;;;;;5092557;28;20031;-84
2021/11/01 10:12:47;;;;;;;1.13;0.38;;;15.00;99.90;;;;;;5092896;28;20555;-84
2021/11/01 10:18:08;;;;;;;0.00;0.00;;;14.80;99.90;;;;;;5093225;28;20094;-84
2021/11/01 10:20:45;;;;;;;0.00;0.00;;;14.70;99.90;;;;;;5093208;28;20073;-84
2021/11/01 10:23:18;;;;;;;0.98;0.90;;;14.80;99.90;;;;;;5074964;28;20474;-84
2021/11/01 10:25:44;;;;;;;0.00;0.00;;;14.70;99.90;;;;;;5093079;28;20059;-83
2021/11/01 10:28:09;;;;;;;0.80;0.32;;;14.70;99.90;;;;;;5092872;28;20032;-83
2021/11/01 10:30:38;;;;;;;0.00;0.00;;;14.50;99.90;;;;;;5092847;28;20035;-83
2021/11/01 10:33:07;;;;;;;0.00;0.00;;;14.50;99.90;;;;;;5092940;28;20502;-84
2021/11/01 10:35:35;;;;;;;0.15;0.15;;;13.90;99.90;;;;;;5093173;28;20077;-86
2021/11/01 10:38:25;;;;;;;0.25;0.25;;;13.60;99.90;;;;;;5092996;28;20024;-87
2021/11/01 10:43:41;;;;;;;0.00;0.00;;;13.80;99.90;;;;;;5093165;28;20126;-85
2021/11/01 11:13:57;;;;;;;0.00;0.00;;;15.10;99.90;;;;;;5092742;28;20062;-85
2021/11/01 11:27:53;;;;;;;0.00;0.00;;;12.60;99.90;;;;;;5092351;28;20047;-86
2021/11/01 11:49:40;;;;;;;0.00;0.00;;;13.80;99.90;;;;;;5010098;28;20048;-86
2021/11/01 11:52:10;;;;;;;0.35;0.35;;;13.90;99.90;;;;;;5009162;28;20026;-83
2021/11/01 11:54:48;;;;;;;0.00;0.00;;;13.90;99.90;;;;;;5010132;28;20058;-82
2021/11/01 11:57:29;;;;;;;0.30;0.30;;;13.80;99.90;;;;;;4993642;28;20444;-84
2021/11/01 11:59:57;;;;;;;0.00;0.00;;;13.90;99.90;;;;;;5010107;28;20042;-82
2021/11/01 12:02:40;;;;;;;0.00;0.00;;;14.00;99.90;;;;;;5009845;28;20034;-84
2021/11/01 12:05:37;;;;;;;0.05;0.05;;;14.60;99.90;;;;;;5010835;28;20034;-83
2021/11/01 12:08:19;;;;;;;0.00;0.00;;;14.80;99.90;;;;;;5013424;28;20117;-83
2021/11/01 12:18:56;;;;;;;0.00;0.00;;;14.80;99.90;;;;;;5095656;28;20031;-86
2021/11/01 12:21:23;;;;;;;0.00;0.00;;;15.00;99.90;;;;;;5095645;28;20107;-84
2021/11/01 12:23:50;;;;;;;0.00;0.00;;;15.10;99.90;;;;;;5092833;28;20016;-84
2021/11/01 12:26:18;;;;;;;11.70;2.88;;;15.10;99.90;;;;;;5095453;28;20134;-82
2021/11/01 12:28:50;;;;;;;0.00;0.00;;;15.20;99.90;;;;;;5095435;28;20077;-84
2021/11/01 12:31:16;;;;;;;0.00;0.00;;;15.00;99.90;;;;;;5095327;28;20016;-83
2021/11/01 12:33:51;;;;;;;0.00;0.00;;;14.90;99.90;;;;;;5095417;28;20032;-84
2021/11/01 12:36:26;;;;;;;0.20;0.20;;;14.80;99.90;;;;;;5095361;28;20028;-84
2021/11/01 12:39:04;;;;;;;0.38;0.38;;;14.60;99.90;;;;;;5077114;28;20487;-83
2021/11/01 12:57:24;;;;;;;0.40;0.40;;;15.10;99.90;;;;;;5095149;28;20026;-84
2021/11/01 12:59:50;;;;;;;1.65;1.38;;;14.90;99.90;;;;;;5094973;28;20024;-83
2021/11/01 13:02:30;;;;;;;0.00;0.00;;;14.80;99.90;;;;;;5094650;28;20024;-83
2021/11/01 13:04:58;;;;;;;1.73;0.38;;;14.80;99.90;;;;;;5095220;28;20185;-84
2021/11/01 13:18:16;;;;;;;0.00;0.00;;;15.20;99.90;;;;;;5093389;28;20367;-84
2021/11/01 13:21:03;;;;;;;1.85;0.20;;;15.30;99.90;;;;;;5075806;28;20030;-83
2021/11/01 13:23:35;;;;;;;0.35;0.35;;;15.40;99.90;;;;;;5075848;28;20474;-84
2021/11/01 13:26:21;;;;;;;0.00;0.00;;;15.50;99.90;;;;;;5094076;28;20067;-83
2021/11/01 13:37:30;;;;;;;0.00;0.00;;;15.40;99.90;;;;;;5094450;28;20035;-82
2021/11/01 13:40:12;;;;;;;0.00;0.00;;;15.40;99.90;;;;;;5094137;28;20028;-81
2021/11/01 13:42:46;;;;;;;0.00;0.00;;;15.30;99.90;;;;;;5093040;28;20017;-82
2021/11/01 13:45:17;;;;;;;0.35;0.00;;;15.30;99.90;;;;;;5092717;28;20028;-82
2021/11/01 13:47:46;;;;;;;21.83;1.27;;;15.40;99.90;;;;;;5093980;28;20099;-83
2021/11/01 13:50:14;;;;;;;0.00;0.00;;;15.50;99.90;;;;;;5093739;28;20020;-82
2021/11/01 13:52:42;;;;;;;0.00;0.00;;;15.70;99.90;;;;;;5093354;28;20020;-82
2021/11/01 13:58:08;;;;;;;15.05;0.38;;;15.50;99.90;;;;;;5093613;28;20416;-82
2021/11/01 14:20:01;;;;;;;0.00;0.00;;;15.10;99.90;;;;;;5093628;28;20028;-82
2021/11/01 15:03:40;;;;;;;3.20;0.70;;;14.90;99.90;;;;;;5092544;28;20398;-82
2021/11/01 16:19:51;;;;;;;0.28;0.28;;;11.90;99.90;;;;;;5095690;28;20546;-85
2021/11/01 16:22:18;;;;;;;0.00;0.00;;;11.70;99.90;;;;;;5095796;28;20467;-86
2021/11/01 16:24:45;;;;;;;0.28;0.28;;;11.30;99.90;;;;;;5083550;28;20045;-85
2021/11/01 16:27:14;;;;;;;0.55;0.55;;;11.10;99.90;;;;;;5055337;28;20037;-85
2021/11/01 16:32:11;;;;;;;0.00;0.00;;;10.90;99.90;;;;;;5055156;28;20060;-85
2021/11/01 16:34:38;;;;;;;0.00;0.00;;;10.80;99.90;;;;;;5050619;28;20021;-86
2021/11/01 16:39:50;;;;;;;0.00;0.00;;;11.10;99.90;;;;;;5035483;28;20040;-85
2021/11/01 16:42:24;;;;;;;0.30;0.30;;;11.10;99.90;;;;;;5035090;28;20040;-84
2021/11/01 16:44:50;;;;;;;0.00;0.00;;;11.10;99.90;;;;;;5033976;28;20087;-83
2021/11/01 16:47:17;;;;;;;0.00;0.00;;;11.10;99.90;;;;;;5034926;28;20029;-85
2021/11/01 16:49:47;;;;;;;0.00;0.00;;;11.10;99.90;;;;;;5050644;28;20112;-84
2021/11/01 16:52:16;;;;;;;0.00;0.00;;;11.10;99.90;;;;;;5053450;28;20060;-85
2021/11/01 16:54:47;;;;;;;0.20;0.20;;;11.10;99.90;;;;;;5054989;28;20017;-84
2021/11/01 16:57:20;;;;;;;0.00;0.00;;;11.00;99.90;;;;;;5054985;28;20099;-85
2021/11/01 17:00:04;;;;;;;0.65;0.65;;;10.90;99.90;;;;;;5054506;28;20575;-85
2021/11/01 17:08:10;;;;;;;0.00;0.00;;;11.00;99.90;;;;;;5054682;28;20106;-84
2021/11/01 17:26:57;;;;;;;0.00;0.00;;;11.60;99.90;;;;;;5034214;28;20072;-85
2021/11/01 18:42:26;;;;;;;0.00;0.00;;;11.20;99.90;;;;;;5093391;28;20034;-83
2021/11/01 18:53:13;;;;;;;0.08;0.08;;;11.20;99.90;;;;;;5072716;28;20034;-86
2021/11/01 18:55:43;;;;;;;0.10;0.10;;;11.20;99.90;;;;;;5074568;28;20101;-83
2021/11/01 18:58:12;;;;;;;0.00;0.00;;;11.20;99.90;;;;;;5092839;28;20138;-84
2021/11/01 19:00:42;;;;;;;0.00;0.00;;;11.20;99.90;;;;;;5092362;28;20035;-84
2021/11/01 19:03:11;;;;;;;0.00;0.00;;;11.20;99.90;;;;;;5092718;28;20027;-84
2021/11/01 21:27:00;;;;;;;3.40;1.35;;;11.60;99.90;;;;;;5094316;28;20073;-83
2021/11/01 21:29:26;;;;;;;0.75;0.47;;;11.70;99.90;;;;;;5094451;28;20118;-83
2021/11/01 21:31:52;;;;;;;0.00;0.00;;;11.80;99.90;;;;;;5093236;28;20020;-84
2021/11/01 21:34:27;;;;;;;7.57;0.40;;;11.90;99.90;;;;;;5094257;28;20032;-83
2021/11/01 21:36:54;;;;;;;4.10;1.55;;;12.00;99.90;;;;;;5094686;28;20024;-83
2021/11/01 21:39:20;;;;;;;1.95;0.73;;;11.90;99.90;;;;;;5093577;28;20454;-83
2021/11/01 21:41:46;;;;;;;0.00;0.00;;;11.80;99.90;;;;;;5076410;28;20036;-83
2021/11/01 21:44:12;;;;;;;0.00;0.00;;;11.80;99.90;;;;;;5094525;28;20035;-85
2021/11/01 21:46:37;;;;;;;0.00;0.00;;;11.80;99.90;;;;;;5092846;28;20660;-83
2021/11/01 21:49:03;;;;;;;11.05;1.15;;;11.80;99.90;;;;;;5094046;28;20020;-83
2021/11/01 21:51:31;;;;;;;13.43;1.02;;;11.70;99.90;;;;;;5093527;28;20039;-83
2021/11/01 21:54:11;;;;;;;0.10;0.10;;;11.70;99.90;;;;;;5075943;28;20024;-84
2021/11/01 21:56:37;;;;;;;0.00;0.00;;;11.70;99.90;;;;;;5094247;28;20020;-86
2021/11/01 21:59:15;;;;;;;0.00;0.00;;;11.80;99.90;;;;;;5075683;28;20023;-84
2021/11/01 22:21:09;;;;;;;0.45;0.32;;;11.70;99.90;;;;;;5070461;28;20032;-86
2021/11/01 22:23:46;;;;;;;0.00;0.00;;;11.80;99.90;;;;;;5093935;28;20513;-84
2021/11/01 22:26:30;;;;;;;10.95;0.55;;;11.80;99.90;;;;;;5075391;28;20131;-83
2021/11/01 22:57:58;;;;;;;0.00;0.00;;;11.80;99.90;;;;;;5092725;28;20035;-85
2021/11/01 23:00:38;;;;;;;4.65;1.33;;;11.80;99.90;;;;;;5092819;28;20020;-84
2021/11/01 23:03:13;;;;;;;0.00;0.00;;;11.80;99.90;;;;;;5092798;28;20402;-84
2021/11/01 23:32:43;;;;;;;0.03;0.03;;;12.00;99.90;;;;;;5092277;28;20023;-82
2021/11/01 23:35:09;;;;;;;0.00;0.00;;;11.20;99.90;;;;;;5092351;28;20110;-82
2021/11/01 23:37:34;;;;;;;1.98;1.15;;;10.70;99.90;;;;;;5092523;28;20021;-83
2021/11/01 23:40:00;;;;;;;0.00;0.00;;;10.40;99.90;;;;;;5074432;28;20043;-83
2021/11/01 23:42:26;;;;;;;0.00;0.00;;;10.30;99.90;;;;;;5092272;28;20448;-82
2021/11/01 23:44:54;;;;;;;0.00;0.00;;;10.20;99.90;;;;;;5092328;28;20027;-82
2021/11/01 23:47:22;;;;;;;0.15;0.15;;;10.20;99.90;;;;;;5091040;28;20095;-82
2021/11/01 23:49:48;;;;;;;0.00;0.00;;;10.10;99.90;;;;;;5091630;28;20028;-82
2021/11/01 23:52:15;;;;;;;0.00;0.00;;;10.10;99.90;;;;;;5091857;28;20093;-82
2021/11/01 23:54:44;;;;;;;0.10;0.10;;;10.00;99.90;;;;;;5092796;28;20399;-83
2021/11/01 23:57:16;;;;;;;0.90;0.90;;;10.00;99.90;;;;;;5092322;28;20016;-83
2021/11/01 23:59:46;;;;;;;0.13;0.13;;;9.90;99.90;;;;;;5091949;28;20035;-82
